createdAt,value
2019-01-23T00:00:55.416Z,53.75
2019-01-23T00:03:01.218Z,51.30
2019-01-23T00:05:07.051Z,53.40
2019-01-23T00:07:12.659Z,56.92
2019-01-23T00:09:18.361Z,46.75
2019-01-23T00:11:23.997Z,54.38
2019-01-23T00:13:39.298Z,44.90
2019-01-23T00:15:44.891Z,53.28
2019-01-23T00:17:50.518Z,52.35
2019-01-23T00:19:56.012Z,51.80
2019-01-23T00:22:01.822Z,50.10
2019-01-23T00:24:07.850Z,48.50
2019-01-23T00:26:13.447Z,49.23
2019-01-23T00:28:18.912Z,55.65
2019-01-23T00:30:24.835Z,45.10
2019-01-23T00:32:30.405Z,48.60
2019-01-23T00:34:35.946Z,48.98
2019-01-23T00:36:41.476Z,44.38
2019-01-23T00:38:48.274Z,46.28
2019-01-23T00:40:53.802Z,45.00
2019-01-23T00:42:59.273Z,54.08
2019-01-23T00:45:06.874Z,48.28
2019-01-23T00:50:23.809Z,49.85
2019-01-23T00:52:32.449Z,52.15
2019-01-23T00:54:38.117Z,51.35
2019-01-23T00:56:43.821Z,46.30
2019-01-23T00:58:52.379Z,50.15
2019-01-23T01:01:01.033Z,51.33
2019-01-23T01:03:17.657Z,60.03
2019-01-23T01:05:24.881Z,55.10
2019-01-23T01:07:31.426Z,59.15
2019-01-23T01:09:41.886Z,60.63
2019-01-23T01:11:48.425Z,61.55
2019-01-23T01:13:54.297Z,57.65
2019-01-23T01:16:00.102Z,61.65
2019-01-23T01:39:55.990Z,58.95
2019-01-23T01:42:01.620Z,68.15
2019-01-23T01:44:07.214Z,71.28
2019-01-23T01:46:12.726Z,57.83
2019-01-23T01:48:18.334Z,65.17
2019-01-23T01:50:23.922Z,67.30
2019-01-23T01:52:30.604Z,63.90
2019-01-23T01:54:37.405Z,66.75
2019-01-23T01:56:43.142Z,61.20
2019-01-23T01:58:48.697Z,68.95
2019-01-23T02:00:55.493Z,65.92
2019-01-23T02:03:01.499Z,54.42
2019-01-23T02:05:07.669Z,56.90
2019-01-23T02:07:15.519Z,67.20
2019-01-23T02:09:21.282Z,57.93
2019-01-23T02:11:26.987Z,56.98
2019-01-23T02:13:32.551Z,54.20
2019-01-23T02:15:38.671Z,57.50
2019-01-23T02:17:44.501Z,52.95
2019-01-23T02:19:53.051Z,52.33
2019-01-23T02:21:58.804Z,61.92
2019-01-23T02:24:05.478Z,53.87
2019-01-23T02:26:10.986Z,49.63
2019-01-23T02:28:16.822Z,62.20
2019-01-23T02:30:24.294Z,56.73
2019-01-23T02:32:29.813Z,56.95
2019-01-23T02:34:35.340Z,59.90
2019-01-23T02:36:41.735Z,51.55
2019-01-23T02:38:47.444Z,48.90
2019-01-23T02:40:53.786Z,60.00
2019-01-23T02:42:59.586Z,56.02
2019-01-23T02:45:05.933Z,53.95
2019-01-23T02:47:11.641Z,49.08
2019-01-23T02:49:23.198Z,63.70
2019-01-23T02:51:28.765Z,55.73
2019-01-23T02:53:34.326Z,57.45
2019-01-23T02:55:39.887Z,54.33
2019-01-23T02:57:45.593Z,56.85
2019-01-23T02:59:51.137Z,60.52
2019-01-23T03:01:56.907Z,47.53
2019-01-23T03:04:02.589Z,51.18
2019-01-23T03:06:08.190Z,57.15
2019-01-23T03:08:18.101Z,63.28
2019-01-23T03:10:23.780Z,53.45
2019-01-23T03:12:29.837Z,49.40
2019-01-23T03:14:37.133Z,55.17
2019-01-23T03:16:42.677Z,61.20
2019-01-23T03:24:48.060Z,59.67
2019-01-23T03:27:01.528Z,59.65
2019-01-23T03:27:30.401Z,64.62
2019-01-23T03:29:07.111Z,56.08
2019-01-23T03:31:12.623Z,58.30
2019-01-23T03:33:24.373Z,48.85
2019-01-23T03:35:30.251Z,55.90
2019-01-23T03:37:36.108Z,53.45
2019-01-23T03:39:41.979Z,48.73
2019-01-23T03:41:47.643Z,57.43
2019-01-23T03:43:53.403Z,52.53
2019-01-23T03:45:59.254Z,54.95
2019-01-23T03:48:04.743Z,53.23
2019-01-23T03:50:15.043Z,59.27
2019-01-23T03:52:29.014Z,56.48
2019-01-23T03:54:34.719Z,54.50
2019-01-23T03:56:40.252Z,62.17
2019-01-23T03:58:45.886Z,62.50
2019-01-23T04:00:53.375Z,64.32
2019-01-23T04:02:58.847Z,59.08
2019-01-23T04:05:08.006Z,52.17
2019-01-23T04:07:13.531Z,61.70
2019-01-23T04:09:20.534Z,55.03
2019-01-23T04:11:28.739Z,61.00
2019-01-23T04:13:34.184Z,56.05
2019-01-23T04:15:40.361Z,63.55
2019-01-23T04:17:45.938Z,62.17
2019-01-23T04:19:51.669Z,60.63
2019-01-23T04:21:57.106Z,52.40
2019-01-23T04:24:03.451Z,54.48
2019-01-23T04:26:09.449Z,53.30
2019-01-23T04:28:14.977Z,61.45
2019-01-23T04:30:25.746Z,54.55
2019-01-23T04:32:31.550Z,57.78
2019-01-23T04:34:37.463Z,55.52
2019-01-23T04:36:44.954Z,54.40
2019-01-23T04:38:50.421Z,55.70
2019-01-23T04:40:55.974Z,57.48
2019-01-23T04:43:04.137Z,71.45
2019-01-23T04:45:11.439Z,60.10
2019-01-23T04:47:16.970Z,63.38
2019-01-23T04:49:28.356Z,60.23
2019-01-23T04:51:52.079Z,57.33
2019-01-23T04:53:58.277Z,69.67
2019-01-23T04:56:07.341Z,61.35
2019-01-23T04:58:14.268Z,73.10
2019-01-23T05:00:22.146Z,66.12
2019-01-23T05:02:29.081Z,64.85
2019-01-23T05:04:34.729Z,65.45
2019-01-23T05:06:40.348Z,50.00
2019-01-23T05:08:45.871Z,52.45
2019-01-23T05:10:54.212Z,50.95
2019-01-23T05:12:59.945Z,53.42
2019-01-23T05:15:13.911Z,52.58
2019-01-23T05:17:19.565Z,51.75
2019-01-23T05:19:25.114Z,60.03
2019-01-23T05:21:34.615Z,46.00
2019-01-23T05:23:40.609Z,57.38
2019-01-23T05:25:46.135Z,58.00
2019-01-23T05:27:54.306Z,51.45
2019-01-23T05:30:00.656Z,51.73
2019-01-23T05:32:06.815Z,46.70
2019-01-23T05:34:13.639Z,40.30
2019-01-23T05:36:19.902Z,53.52
2019-01-23T05:38:25.483Z,49.25
2019-01-23T05:40:37.211Z,45.73
2019-01-23T05:42:43.065Z,45.38
2019-01-23T05:47:00.775Z,44.73
2019-01-23T05:49:06.464Z,49.90
2019-01-23T05:51:12.689Z,47.62
2019-01-23T05:53:18.258Z,51.42
2019-01-23T05:55:24.553Z,41.15
2019-01-23T05:57:30.112Z,40.35
2019-01-23T05:59:37.274Z,35.33
2019-01-23T06:01:43.199Z,36.50
2019-01-23T06:03:49.303Z,34.70
2019-01-23T06:05:55.857Z,30.75
2019-01-23T06:08:02.942Z,35.17
2019-01-23T06:10:08.869Z,38.00
2019-01-23T06:12:14.681Z,37.25
2019-01-23T06:14:22.194Z,29.87
2019-01-23T06:16:27.950Z,31.35
2019-01-23T06:18:33.518Z,32.58
2019-01-23T06:20:39.308Z,23.15
2019-01-23T06:22:45.393Z,24.20
2019-01-23T06:24:50.963Z,30.82
2019-01-23T06:30:28.841Z,22.75
2019-01-23T06:32:43.809Z,22.00
2019-01-23T06:34:49.769Z,21.95
2019-01-23T06:36:55.257Z,27.80
2019-01-23T06:39:07.377Z,24.72
2019-01-23T06:41:13.310Z,27.05
2019-01-23T06:43:19.542Z,24.98
2019-01-23T06:47:47.624Z,29.40
2019-01-23T06:49:54.694Z,27.20
2019-01-23T06:52:00.374Z,30.15
2019-01-23T06:54:06.854Z,34.75
2019-01-23T06:56:12.351Z,30.48
2019-01-23T06:58:20.564Z,34.88
2019-01-23T07:02:37.657Z,31.65
2019-01-23T07:04:43.682Z,32.67
2019-01-23T07:06:49.262Z,33.60
2019-01-23T07:11:16.181Z,36.00
2019-01-23T07:13:25.244Z,30.10
2019-01-23T07:15:31.001Z,39.85
2019-01-23T07:17:36.644Z,36.13
2019-01-23T07:19:44.098Z,32.70
2019-01-23T07:21:49.567Z,34.08
2019-01-23T07:23:55.278Z,35.35
2019-01-23T07:26:00.903Z,31.60
2019-01-23T07:28:06.410Z,37.50
2019-01-23T07:30:24.204Z,35.48
2019-01-23T07:32:28.363Z,37.30
2019-01-23T07:34:34.045Z,31.07
2019-01-23T07:36:41.761Z,28.45
2019-01-23T07:38:49.502Z,33.02
2019-01-23T07:40:54.986Z,36.55
2019-01-23T07:43:00.992Z,35.15
2019-01-23T07:45:07.897Z,38.92
2019-01-23T07:49:25.264Z,36.40
2019-01-23T07:51:34.782Z,39.95
2019-01-23T07:53:40.617Z,30.17
2019-01-23T07:55:49.537Z,31.65
2019-01-23T07:57:55.270Z,32.20
2019-01-23T08:00:03.071Z,35.05
2019-01-23T08:02:12.212Z,34.85
2019-01-23T08:04:23.362Z,34.60
2019-01-23T08:06:36.873Z,38.45
2019-01-23T08:08:52.555Z,26.48
2019-01-23T08:11:01.747Z,31.02
2019-01-23T08:13:15.013Z,29.77
2019-01-23T08:15:36.052Z,35.85
2019-01-23T13:05:13.280Z,30.82
2019-01-23T13:18:35.982Z,32.80
2019-01-23T15:14:06.273Z,45.80
2019-01-23T15:16:13.654Z,47.62
2019-01-23T15:18:19.121Z,47.83
2019-01-23T15:20:27.551Z,47.65
2019-01-23T15:22:33.033Z,49.83
2019-01-23T15:24:38.847Z,51.00
2019-01-23T15:26:44.339Z,45.60
2019-01-23T15:28:51.630Z,49.38
2019-01-23T15:30:57.158Z,47.13
2019-01-23T15:33:02.601Z,55.33
2019-01-23T15:35:12.222Z,50.00
2019-01-23T15:37:17.826Z,47.85
2019-01-23T15:44:06.083Z,45.10
2019-01-23T15:46:12.353Z,51.90
2019-01-23T15:48:18.358Z,49.98
2019-01-23T15:50:24.591Z,50.10
2019-01-23T15:52:31.794Z,54.33
2019-01-23T15:54:37.306Z,49.80
2019-01-23T15:56:43.104Z,53.25
2019-01-23T15:58:49.034Z,55.00
2019-01-23T16:00:54.936Z,48.38
2019-01-23T16:03:00.483Z,51.23
2019-01-23T16:05:08.954Z,51.85
2019-01-23T16:07:14.402Z,49.80
2019-01-23T16:09:21.890Z,49.03
2019-01-23T16:11:28.644Z,48.50
2019-01-23T16:13:42.024Z,46.33
2019-01-23T16:15:43.246Z,54.30
2019-01-23T16:20:13.912Z,42.62
2019-01-23T16:22:20.374Z,54.50
2019-01-23T16:24:25.990Z,47.43
2019-01-23T16:26:31.462Z,45.05
2019-01-23T16:28:37.818Z,54.10
2019-01-23T16:30:43.245Z,47.35
2019-01-23T16:32:48.793Z,47.08
2019-01-23T16:34:54.879Z,49.03
2019-01-23T16:37:00.569Z,56.95
2019-01-23T16:39:08.618Z,50.55
2019-01-23T16:41:15.057Z,48.60
2019-01-23T16:43:20.490Z,54.13
2019-01-23T16:45:25.937Z,48.02
2019-01-23T16:47:31.990Z,50.20
2019-01-23T16:49:37.409Z,46.90
2019-01-23T16:51:43.485Z,47.90
2019-01-23T16:54:00.957Z,48.80
2019-01-23T16:56:06.889Z,48.30
2019-01-23T16:58:12.330Z,45.88
2019-01-23T17:00:21.725Z,49.88
2019-01-23T17:02:27.157Z,43.98
2019-01-23T17:04:32.849Z,44.00
2019-01-23T17:06:38.516Z,41.58
2019-01-23T17:08:44.302Z,46.40
2019-01-23T17:10:49.725Z,51.13
2019-01-23T17:12:56.070Z,48.60
2019-01-23T17:15:01.922Z,44.58
2019-01-23T17:17:07.506Z,50.65
2019-01-23T17:19:12.973Z,49.27
2019-01-23T17:21:18.549Z,55.43
2019-01-23T17:23:24.477Z,45.98
2019-01-23T17:25:29.957Z,50.52
2019-01-23T17:27:35.389Z,47.62
2019-01-23T17:29:40.953Z,46.90
2019-01-23T17:31:46.714Z,50.90
2019-01-23T17:33:52.310Z,48.63
2019-01-23T17:35:57.778Z,48.30
2019-01-23T17:38:03.519Z,50.65
2019-01-23T17:40:11.430Z,56.98
2019-01-23T17:42:18.895Z,56.37
2019-01-23T17:44:27.145Z,53.45
2019-01-23T17:46:32.902Z,49.58
2019-01-23T17:48:38.539Z,59.33
2019-01-23T17:50:44.309Z,55.50
2019-01-23T17:52:49.749Z,58.58
2019-01-23T17:54:55.373Z,55.75
2019-01-23T17:57:00.857Z,51.68
2019-01-23T17:59:06.520Z,55.45
2019-01-23T18:01:12.383Z,52.75
2019-01-23T18:03:20.277Z,54.90
2019-01-23T18:05:26.265Z,49.83
2019-01-23T18:07:31.714Z,52.35
2019-01-23T18:09:37.157Z,50.50
2019-01-23T18:12:05.902Z,64.55
2019-01-23T18:14:13.091Z,60.28
2019-01-23T18:16:18.550Z,54.05
2019-01-23T18:18:25.233Z,49.13
2019-01-23T18:20:31.265Z,48.40
2019-01-23T18:22:37.060Z,49.42
2019-01-23T18:24:42.497Z,44.03
2019-01-23T18:26:48.137Z,56.45
2019-01-23T18:28:53.670Z,57.40
2019-01-23T18:31:12.941Z,50.70
2019-01-23T18:33:20.463Z,56.68
2019-01-23T18:36:02.565Z,56.58
2019-01-23T18:38:36.736Z,49.30
2019-01-23T18:41:26.412Z,50.35
2019-01-23T18:43:53.255Z,55.92
2019-01-23T18:46:38.557Z,49.30
2019-01-23T18:49:29.110Z,55.38
2019-01-23T18:51:49.486Z,48.98
2019-01-23T18:53:55.227Z,50.63
2019-01-23T18:56:02.498Z,48.45
2019-01-23T18:58:08.204Z,54.60
2019-01-23T19:00:23.734Z,49.35
2019-01-23T19:02:31.565Z,48.87
2019-01-23T19:04:37.961Z,51.13
2019-01-23T19:06:43.882Z,50.28
2019-01-23T19:08:51.233Z,54.77
2019-01-23T19:10:57.507Z,51.10
2019-01-23T19:13:06.102Z,51.90
2019-01-23T19:15:13.620Z,55.95
2019-01-23T19:17:19.110Z,60.20
2019-01-23T19:19:24.610Z,44.30
2019-01-23T19:21:32.858Z,47.70
2019-01-23T19:23:39.413Z,54.40
2019-01-23T19:25:45.361Z,53.15
2019-01-23T19:27:51.816Z,48.30
2019-01-23T19:29:59.430Z,52.00
2019-01-23T19:32:05.658Z,51.40
2019-01-23T19:34:11.117Z,55.17
2019-01-23T19:36:18.164Z,46.28
2019-01-23T19:38:25.875Z,50.08
2019-01-23T19:40:31.319Z,52.78
2019-01-23T19:42:37.314Z,46.80
2019-01-23T19:44:42.804Z,55.25
2019-01-23T19:46:50.803Z,47.15
2019-01-23T19:48:56.539Z,54.63
2019-01-23T19:51:02.003Z,49.48
2019-01-23T19:53:10.459Z,41.70
2019-01-23T19:55:17.437Z,46.88
2019-01-23T19:57:23.614Z,46.95
2019-01-23T19:59:30.433Z,47.50
2019-01-23T20:01:35.894Z,46.60
2019-01-23T20:03:41.368Z,49.27
2019-01-23T20:05:46.998Z,43.80
2019-01-23T20:07:53.602Z,46.73
2019-01-23T20:09:59.310Z,45.48
2019-01-23T20:12:07.433Z,52.23
2019-01-23T20:14:12.965Z,48.35
2019-01-23T20:16:19.158Z,54.25
2019-01-23T20:18:26.458Z,43.10
2019-01-23T20:20:31.990Z,45.88
2019-01-23T20:22:37.819Z,43.58
2019-01-23T20:24:43.401Z,45.33
2019-01-23T20:26:49.104Z,54.90
2019-01-23T20:28:55.393Z,54.05
2019-01-23T20:31:02.905Z,44.60
2019-01-23T20:33:09.222Z,51.63
2019-01-23T20:36:11.220Z,46.60
2019-01-23T20:38:18.359Z,49.15
2019-01-23T20:40:24.702Z,43.78
2019-01-23T20:42:32.469Z,44.90
2019-01-23T20:47:03.022Z,44.18
2019-01-23T20:49:09.724Z,38.35
2019-01-23T20:51:18.644Z,46.68
2019-01-23T20:53:26.230Z,45.12
2019-01-23T20:55:37.447Z,48.45
2019-01-23T20:57:46.132Z,48.78
2019-01-23T20:59:52.018Z,47.88
2019-01-23T21:02:00.198Z,48.45
2019-01-23T21:04:08.084Z,44.58
2019-01-23T21:06:16.002Z,45.73
2019-01-23T21:08:25.276Z,42.48
2019-01-23T21:10:35.554Z,59.18
2019-01-23T21:12:41.710Z,51.68
2019-01-23T21:14:48.131Z,40.80
2019-01-23T21:16:53.829Z,46.83
2019-01-23T21:18:59.612Z,49.98
2019-01-23T21:21:05.406Z,44.13
2019-01-23T21:23:14.589Z,52.73
2019-01-23T21:25:23.089Z,48.58
2019-01-23T21:27:29.059Z,47.88
2019-01-23T21:29:38.885Z,46.92
2019-01-23T21:31:44.423Z,48.92
2019-01-23T21:33:50.975Z,49.15
2019-01-23T21:36:03.847Z,50.58
2019-01-23T21:38:10.273Z,51.37
2019-01-23T21:40:23.021Z,52.90
2019-01-23T21:42:29.102Z,45.67
2019-01-23T21:44:36.417Z,45.67
2019-01-23T21:46:41.965Z,51.08
2019-01-23T21:48:54.230Z,46.85
2019-01-23T21:51:00.260Z,50.98
2019-01-23T21:53:06.285Z,54.40
2019-01-23T21:55:19.205Z,52.70
2019-01-23T21:57:24.737Z,50.38
2019-01-23T22:01:55.113Z,49.75
2019-01-23T22:04:00.666Z,44.55
2019-01-23T22:06:06.248Z,50.40
2019-01-23T22:08:12.030Z,46.45
2019-01-23T22:10:20.039Z,47.27
2019-01-23T22:12:26.265Z,51.00
2019-01-23T22:14:32.125Z,55.85
2019-01-23T22:16:40.847Z,51.33
2019-01-23T22:18:46.611Z,50.92
2019-01-23T22:20:52.457Z,48.78
2019-01-23T22:22:59.590Z,46.70
2019-01-23T22:25:05.356Z,46.28
2019-01-23T22:27:11.001Z,47.43
2019-01-23T22:29:22.826Z,52.65
2019-01-23T22:31:28.666Z,46.20
2019-01-23T22:33:36.654Z,47.23
2019-01-23T22:35:42.619Z,52.30
2019-01-23T22:37:49.127Z,48.98
2019-01-23T22:39:56.709Z,53.23
2019-01-23T22:42:02.803Z,58.70
2019-01-23T22:44:08.392Z,52.70
2019-01-23T22:46:14.049Z,52.95
2019-01-23T22:48:21.871Z,52.00
2019-01-23T22:50:31.469Z,53.13
2019-01-23T22:52:37.598Z,49.27
2019-01-23T22:54:50.793Z,48.80
2019-01-23T22:56:57.518Z,46.90
2019-01-23T22:59:03.194Z,51.18
2019-01-23T23:01:27.585Z,48.80
2019-01-23T23:03:33.129Z,52.95
2019-01-23T23:05:38.561Z,55.63
2019-01-23T23:07:44.129Z,49.50
2019-01-23T23:09:50.020Z,52.15
2019-01-23T23:11:55.682Z,56.23
2019-01-23T23:14:04.509Z,54.13
2019-01-23T23:16:10.515Z,49.08
2019-01-23T23:18:16.685Z,54.38
2019-01-23T23:20:22.317Z,48.52
2019-01-23T23:22:28.114Z,50.95
2019-01-23T23:24:33.595Z,45.80
2019-01-23T23:26:39.065Z,53.98
2019-01-23T23:28:44.981Z,47.53
2019-01-23T23:30:50.711Z,55.00
2019-01-23T23:32:57.433Z,47.90
2019-01-23T23:35:02.921Z,53.63
2019-01-23T23:37:09.150Z,44.38
2019-01-23T23:39:14.750Z,45.67
2019-01-23T23:41:20.233Z,50.40
2019-01-23T23:43:27.162Z,48.00
2019-01-23T23:45:33.264Z,60.12
2019-01-23T23:47:38.822Z,51.70
2019-01-23T23:49:44.439Z,57.48
2019-01-23T23:51:50.442Z,57.23
2019-01-23T23:53:56.309Z,66.07
2019-01-23T23:56:02.716Z,55.85
2019-01-23T23:58:08.589Z,54.63
